sensor_id;sensor_type;location;lat;lon;timestamp;temperature;humidity
18930;DHT22;43305;52.186;5.598;2023-02-03T00:01:36;8.80;99.90
18930;DHT22;43305;52.186;5.598;2023-02-03T00:04:03;8.80;99.90
18930;DHT22;43305;52.186;5.598;2023-02-03T00:06:30;8.80;99.90
18930;DHT22;43305;52.186;5.598;2023-02-03T00:08:58;8.80;99.90
18930;DHT22;43305;52.186;5.598;2023-02-03T00:11:27;8.80;99.90
18930;DHT22;43305;52.186;5.598;2023-02-03T00:13:55;8.90;99.90
18930;DHT22;43305;52.186;5.598;2023-02-03T00:16:23;8.90;99.90
18930;DHT22;43305;52.186;5.598;2023-02-03T00:18:50;8.90;99.90
18930;DHT22;43305;52.186;5.598;2023-02-03T00:21:17;8.90;99.90
18930;DHT22;43305;52.186;5.598;2023-02-03T00:23:44;8.90;99.90
18930;DHT22;43305;52.186;5.598;2023-02-03T00:26:13;8.90;99.90
18930;DHT22;43305;52.186;5.598;2023-02-03T00:28:40;9.00;99.90
18930;DHT22;43305;52.186;5.598;2023-02-03T00:31:14;9.00;99.90
18930;DHT22;43305;52.186;5.598;2023-02-03T00:33:42;9.00;99.90
18930;DHT22;43305;52.186;5.598;2023-02-03T00:36:10;8.90;99.90
18930;DHT22;43305;52.186;5.598;2023-02-03T00:38:37;9.00;99.90
18930;DHT22;43305;52.186;5.598;2023-02-03T00:41:04;9.00;99.90
18930;DHT22;43305;52.186;5.598;2023-02-03T00:43:31;9.00;99.90
18930;DHT22;43305;52.186;5.598;2023-02-03T00:46:01;9.00;99.90
18930;DHT22;43305;52.186;5.598;2023-02-03T00:48:31;9.00;99.90
18930;DHT22;43305;52.186;5.598;2023-02-03T00:50:59;9.00;99.90
18930;DHT22;43305;52.186;5.598;2023-02-03T00:53:26;9.00;99.90
18930;DHT22;43305;52.186;5.598;2023-02-03T00:55:53;9.00;99.90
18930;DHT22;43305;52.186;5.598;2023-02-03T00:58:20;9.00;99.90
18930;DHT22;43305;52.186;5.598;2023-02-03T01:00:46;9.00;99.90
18930;DHT22;43305;52.186;5.598;2023-02-03T01:03:13;9.00;99.90
18930;DHT22;43305;52.186;5.598;2023-02-03T01:05:40;9.00;99.90
18930;DHT22;43305;52.186;5.598;2023-02-03T01:08:08;9.00;99.90
18930;DHT22;43305;52.186;5.598;2023-02-03T01:10:37;9.00;99.90
18930;DHT22;43305;52.186;5.598;2023-02-03T01:13:03;9.00;99.90
18930;DHT22;43305;52.186;5.598;2023-02-03T01:15:30;9.00;99.90
18930;DHT22;43305;52.186;5.598;2023-02-03T01:17:57;9.00;99.90
18930;DHT22;43305;52.186;5.598;2023-02-03T01:20:24;9.00;99.90
18930;DHT22;43305;52.186;5.598;2023-02-03T01:22:51;9.00;99.90
18930;DHT22;43305;52.186;5.598;2023-02-03T01:25:19;9.00;99.90
18930;DHT22;43305;52.186;5.598;2023-02-03T01:27:46;9.00;99.90
18930;DHT22;43305;52.186;5.598;2023-02-03T01:30:13;9.00;99.90
18930;DHT22;43305;52.186;5.598;2023-02-03T01:32:40;8.90;99.90
18930;DHT22;43305;52.186;5.598;2023-02-03T01:35:07;8.90;99.90
18930;DHT22;43305;52.186;5.598;2023-02-03T01:37:34;8.90;99.90
18930;DHT22;43305;52.186;5.598;2023-02-03T01:40:01;8.90;99.90
18930;DHT22;43305;52.186;5.598;2023-02-03T01:42:31;8.90;99.90
18930;DHT22;43305;52.186;5.598;2023-02-03T01:44:58;8.90;99.90
18930;DHT22;43305;52.186;5.598;2023-02-03T01:47:30;8.90;99.90
18930;DHT22;43305;52.186;5.598;2023-02-03T01:50:11;8.90;99.90
18930;DHT22;43305;52.186;5.598;2023-02-03T01:52:41;8.80;99.90
18930;DHT22;43305;52.186;5.598;2023-02-03T01:55:11;8.80;99.90
18930;DHT22;43305;52.186;5.598;2023-02-03T01:57:45;8.80;99.90
18930;DHT22;43305;52.186;5.598;2023-02-03T02:00:13;8.80;99.90
18930;DHT22;43305;52.186;5.598;2023-02-03T02:02:43;8.80;99.90
18930;DHT22;43305;52.186;5.598;2023-02-03T02:05:15;8.80;99.90
18930;DHT22;43305;52.186;5.598;2023-02-03T02:07:45;8.80;99.90
18930;DHT22;43305;52.186;5.598;2023-02-03T02:10:13;8.80;99.90
18930;DHT22;43305;52.186;5.598;2023-02-03T02:12:41;8.80;99.90
18930;DHT22;43305;52.186;5.598;2023-02-03T02:15:09;8.80;99.90
18930;DHT22;43305;52.186;5.598;2023-02-03T02:21:11;8.80;99.90
18930;DHT22;43305;52.186;5.598;2023-02-03T02:27:02;8.80;99.90
18930;DHT22;43305;52.186;5.598;2023-02-03T02:35:37;8.80;99.90
18930;DHT22;43305;52.186;5.598;2023-02-03T02:38:14;8.80;99.90
18930;DHT22;43305;52.186;5.598;2023-02-03T02:40:48;8.80;99.90
18930;DHT22;43305;52.186;5.598;2023-02-03T02:43:21;8.80;99.90
18930;DHT22;43305;52.186;5.598;2023-02-03T02:45:50;8.80;99.90
18930;DHT22;43305;52.186;5.598;2023-02-03T02:48:26;8.80;99.90
18930;DHT22;43305;52.186;5.598;2023-02-03T02:50:56;8.80;99.90
18930;DHT22;43305;52.186;5.598;2023-02-03T02:53:25;8.80;99.90
18930;DHT22;43305;52.186;5.598;2023-02-03T02:55:56;8.80;99.90
18930;DHT22;43305;52.186;5.598;2023-02-03T02:58:24;8.80;99.90
18930;DHT22;43305;52.186;5.598;2023-02-03T03:00:52;8.80;99.90
18930;DHT22;43305;52.186;5.598;2023-02-03T03:03:21;8.80;99.90
18930;DHT22;43305;52.186;5.598;2023-02-03T03:05:51;8.90;99.90
18930;DHT22;43305;52.186;5.598;2023-02-03T03:08:21;8.90;99.90
18930;DHT22;43305;52.186;5.598;2023-02-03T03:10:49;8.90;99.90
18930;DHT22;43305;52.186;5.598;2023-02-03T03:13:22;9.00;99.90
18930;DHT22;43305;52.186;5.598;2023-02-03T03:15:51;9.00;99.90
18930;DHT22;43305;52.186;5.598;2023-02-03T03:18:24;9.00;99.90
18930;DHT22;43305;52.186;5.598;2023-02-03T03:20:54;9.10;99.90
18930;DHT22;43305;52.186;5.598;2023-02-03T03:23:25;9.10;99.90
18930;DHT22;43305;52.186;5.598;2023-02-03T03:25:59;9.20;99.90
18930;DHT22;43305;52.186;5.598;2023-02-03T03:28:34;9.20;99.90
18930;DHT22;43305;52.186;5.598;2023-02-03T03:31:01;9.20;99.90
18930;DHT22;43305;52.186;5.598;2023-02-03T03:33:30;9.30;99.90
18930;DHT22;43305;52.186;5.598;2023-02-03T03:36:01;9.20;99.90
18930;DHT22;43305;52.186;5.598;2023-02-03T03:38:35;9.30;99.90
18930;DHT22;43305;52.186;5.598;2023-02-03T03:41:10;9.30;99.90
18930;DHT22;43305;52.186;5.598;2023-02-03T03:43:42;9.40;99.90
18930;DHT22;43305;52.186;5.598;2023-02-03T03:46:13;9.30;99.90
18930;DHT22;43305;52.186;5.598;2023-02-03T03:48:44;9.30;99.90
18930;DHT22;43305;52.186;5.598;2023-02-03T03:51:18;9.40;99.90
18930;DHT22;43305;52.186;5.598;2023-02-03T03:53:49;9.40;99.90
18930;DHT22;43305;52.186;5.598;2023-02-03T03:56:21;9.40;99.90
18930;DHT22;43305;52.186;5.598;2023-02-03T03:58:51;9.40;99.90
18930;DHT22;43305;52.186;5.598;2023-02-03T04:01:20;9.40;99.90
18930;DHT22;43305;52.186;5.598;2023-02-03T04:03:54;9.40;99.90
18930;DHT22;43305;52.186;5.598;2023-02-03T04:06:22;9.40;99.90
18930;DHT22;43305;52.186;5.598;2023-02-03T04:08:50;9.40;99.90
18930;DHT22;43305;52.186;5.598;2023-02-03T04:11:17;9.40;99.90
18930;DHT22;43305;52.186;5.598;2023-02-03T04:13:57;9.40;99.90
18930;DHT22;43305;52.186;5.598;2023-02-03T04:16:24;9.40;99.90
18930;DHT22;43305;52.186;5.598;2023-02-03T04:18:52;9.40;99.90
18930;DHT22;43305;52.186;5.598;2023-02-03T04:21:19;9.40;99.90
18930;DHT22;43305;52.186;5.598;2023-02-03T04:23:46;9.40;99.90
18930;DHT22;43305;52.186;5.598;2023-02-03T04:26:13;9.40;99.90
18930;DHT22;43305;52.186;5.598;2023-02-03T04:28:40;9.50;99.90
18930;DHT22;43305;52.186;5.598;2023-02-03T04:31:07;9.50;99.90
18930;DHT22;43305;52.186;5.598;2023-02-03T04:33:33;9.50;99.90
18930;DHT22;43305;52.186;5.598;2023-02-03T04:36:02;9.50;99.90
18930;DHT22;43305;52.186;5.598;2023-02-03T04:38:29;9.50;99.90
18930;DHT22;43305;52.186;5.598;2023-02-03T04:40:57;9.50;99.90
18930;DHT22;43305;52.186;5.598;2023-02-03T04:43:24;9.40;99.90
18930;DHT22;43305;52.186;5.598;2023-02-03T04:45:51;9.50;99.90
18930;DHT22;43305;52.186;5.598;2023-02-03T04:48:18;9.40;99.90
18930;DHT22;43305;52.186;5.598;2023-02-03T04:50:45;9.40;99.90
18930;DHT22;43305;52.186;5.598;2023-02-03T04:53:13;9.50;99.90
18930;DHT22;43305;52.186;5.598;2023-02-03T04:55:40;9.50;99.90
18930;DHT22;43305;52.186;5.598;2023-02-03T04:58:09;9.50;99.90
18930;DHT22;43305;52.186;5.598;2023-02-03T05:00:36;9.50;99.90
18930;DHT22;43305;52.186;5.598;2023-02-03T05:03:03;9.50;99.90
18930;DHT22;43305;52.186;5.598;2023-02-03T05:05:30;9.50;99.90
18930;DHT22;43305;52.186;5.598;2023-02-03T05:07:57;9.50;99.90
18930;DHT22;43305;52.186;5.598;2023-02-03T05:10:25;9.50;99.90
18930;DHT22;43305;52.186;5.598;2023-02-03T05:12:52;9.50;99.90
18930;DHT22;43305;52.186;5.598;2023-02-03T05:15:19;9.40;99.90
18930;DHT22;43305;52.186;5.598;2023-02-03T05:17:46;9.50;99.90
18930;DHT22;43305;52.186;5.598;2023-02-03T05:20:13;9.50;99.90
18930;DHT22;43305;52.186;5.598;2023-02-03T05:22:40;9.40;99.90
18930;DHT22;43305;52.186;5.598;2023-02-03T05:25:07;9.40;99.90
18930;DHT22;43305;52.186;5.598;2023-02-03T05:27:37;9.50;99.90
18930;DHT22;43305;52.186;5.598;2023-02-03T05:30:05;9.40;99.90
18930;DHT22;43305;52.186;5.598;2023-02-03T05:32:32;9.40;99.90
18930;DHT22;43305;52.186;5.598;2023-02-03T05:34:59;9.40;99.90
18930;DHT22;43305;52.186;5.598;2023-02-03T05:37:26;9.40;99.90
18930;DHT22;43305;52.186;5.598;2023-02-03T05:39:53;9.40;99.90
18930;DHT22;43305;52.186;5.598;2023-02-03T05:42:46;9.40;99.90
18930;DHT22;43305;52.186;5.598;2023-02-03T05:45:15;9.40;99.90
18930;DHT22;43305;52.186;5.598;2023-02-03T05:47:42;9.40;99.90
18930;DHT22;43305;52.186;5.598;2023-02-03T05:50:09;9.40;99.90
18930;DHT22;43305;52.186;5.598;2023-02-03T05:52:36;9.40;99.90
18930;DHT22;43305;52.186;5.598;2023-02-03T05:55:03;9.50;99.90
18930;DHT22;43305;52.186;5.598;2023-02-03T05:57:30;9.40;99.90
18930;DHT22;43305;52.186;5.598;2023-02-03T05:59:59;9.40;99.90
18930;DHT22;43305;52.186;5.598;2023-02-03T06:02:25;9.40;99.90
18930;DHT22;43305;52.186;5.598;2023-02-03T06:04:52;9.40;99.90
18930;DHT22;43305;52.186;5.598;2023-02-03T06:07:19;9.40;99.90
18930;DHT22;43305;52.186;5.598;2023-02-03T06:09:46;9.40;99.90
18930;DHT22;43305;52.186;5.598;2023-02-03T06:12:13;9.40;99.90
18930;DHT22;43305;52.186;5.598;2023-02-03T06:14:40;9.40;99.90
18930;DHT22;43305;52.186;5.598;2023-02-03T06:17:09;9.40;99.90
18930;DHT22;43305;52.186;5.598;2023-02-03T06:19:35;9.40;99.90
18930;DHT22;43305;52.186;5.598;2023-02-03T06:22:02;9.40;99.90
18930;DHT22;43305;52.186;5.598;2023-02-03T06:24:29;9.40;99.90
18930;DHT22;43305;52.186;5.598;2023-02-03T06:26:56;9.40;99.90
18930;DHT22;43305;52.186;5.598;2023-02-03T06:29:23;9.40;99.90
18930;DHT22;43305;52.186;5.598;2023-02-03T06:31:50;9.40;99.90
18930;DHT22;43305;52.186;5.598;2023-02-03T06:34:18;9.40;99.90
18930;DHT22;43305;52.186;5.598;2023-02-03T06:36:44;9.40;99.90
18930;DHT22;43305;52.186;5.598;2023-02-03T06:39:13;9.40;99.90
18930;DHT22;43305;52.186;5.598;2023-02-03T06:41:40;9.40;99.90
18930;DHT22;43305;52.186;5.598;2023-02-03T06:44:07;9.40;99.90
18930;DHT22;43305;52.186;5.598;2023-02-03T06:46:34;9.30;99.90
18930;DHT22;43305;52.186;5.598;2023-02-03T06:49:00;9.30;99.90
18930;DHT22;43305;52.186;5.598;2023-02-03T06:51:29;9.40;99.90
18930;DHT22;43305;52.186;5.598;2023-02-03T06:53:55;9.40;99.90
18930;DHT22;43305;52.186;5.598;2023-02-03T06:56:23;9.30;99.90
18930;DHT22;43305;52.186;5.598;2023-02-03T06:58:50;9.30;99.90
18930;DHT22;43305;52.186;5.598;2023-02-03T07:01:17;9.40;99.90
18930;DHT22;43305;52.186;5.598;2023-02-03T07:03:43;9.30;99.90
18930;DHT22;43305;52.186;5.598;2023-02-03T07:06:11;9.30;99.90
18930;DHT22;43305;52.186;5.598;2023-02-03T07:08:39;9.30;99.90
18930;DHT22;43305;52.186;5.598;2023-02-03T07:11:07;9.30;99.90
18930;DHT22;43305;52.186;5.598;2023-02-03T07:13:33;9.30;99.90
18930;DHT22;43305;52.186;5.598;2023-02-03T07:16:00;9.30;99.90
18930;DHT22;43305;52.186;5.598;2023-02-03T07:18:27;9.20;99.90
18930;DHT22;43305;52.186;5.598;2023-02-03T07:20:55;9.30;99.90
18930;DHT22;43305;52.186;5.598;2023-02-03T07:23:22;9.30;99.90
18930;DHT22;43305;52.186;5.598;2023-02-03T07:25:50;9.30;99.90
18930;DHT22;43305;52.186;5.598;2023-02-03T07:28:17;9.30;99.90
18930;DHT22;43305;52.186;5.598;2023-02-03T07:30:46;9.30;99.90
18930;DHT22;43305;52.186;5.598;2023-02-03T07:33:15;9.30;99.90
18930;DHT22;43305;52.186;5.598;2023-02-03T07:35:43;9.30;99.90
18930;DHT22;43305;52.186;5.598;2023-02-03T07:38:09;9.30;99.90
18930;DHT22;43305;52.186;5.598;2023-02-03T07:40:36;9.30;99.90
18930;DHT22;43305;52.186;5.598;2023-02-03T07:43:04;9.30;99.90
18930;DHT22;43305;52.186;5.598;2023-02-03T07:45:32;9.30;99.90
18930;DHT22;43305;52.186;5.598;2023-02-03T07:47:59;9.30;99.90
18930;DHT22;43305;52.186;5.598;2023-02-03T07:50:26;9.30;99.90
18930;DHT22;43305;52.186;5.598;2023-02-03T07:52:53;9.30;99.90
18930;DHT22;43305;52.186;5.598;2023-02-03T07:55:20;9.30;99.90
18930;DHT22;43305;52.186;5.598;2023-02-03T07:57:47;9.30;99.90
18930;DHT22;43305;52.186;5.598;2023-02-03T08:00:16;9.40;99.90
18930;DHT22;43305;52.186;5.598;2023-02-03T08:02:46;9.30;99.90
18930;DHT22;43305;52.186;5.598;2023-02-03T08:05:13;9.30;99.90
18930;DHT22;43305;52.186;5.598;2023-02-03T08:07:41;9.40;99.90
18930;DHT22;43305;52.186;5.598;2023-02-03T08:10:11;9.40;99.90
18930;DHT22;43305;52.186;5.598;2023-02-03T08:12:42;9.40;99.90
18930;DHT22;43305;52.186;5.598;2023-02-03T08:15:12;9.30;99.90
18930;DHT22;43305;52.186;5.598;2023-02-03T08:17:40;9.40;99.90
18930;DHT22;43305;52.186;5.598;2023-02-03T08:20:09;9.40;99.90
18930;DHT22;43305;52.186;5.598;2023-02-03T08:22:36;9.40;99.90
18930;DHT22;43305;52.186;5.598;2023-02-03T08:25:04;9.40;99.90
18930;DHT22;43305;52.186;5.598;2023-02-03T08:27:32;9.40;99.90
18930;DHT22;43305;52.186;5.598;2023-02-03T08:29:59;9.40;99.90
18930;DHT22;43305;52.186;5.598;2023-02-03T08:32:26;9.50;99.90
18930;DHT22;43305;52.186;5.598;2023-02-03T08:34:54;9.50;99.90
18930;DHT22;43305;52.186;5.598;2023-02-03T08:37:22;9.50;99.90
18930;DHT22;43305;52.186;5.598;2023-02-03T08:39:49;9.50;99.90
18930;DHT22;43305;52.186;5.598;2023-02-03T08:42:17;9.50;99.90
18930;DHT22;43305;52.186;5.598;2023-02-03T08:44:44;9.50;99.90
18930;DHT22;43305;52.186;5.598;2023-02-03T08:47:11;9.50;99.90
18930;DHT22;43305;52.186;5.598;2023-02-03T08:49:38;9.50;99.90
18930;DHT22;43305;52.186;5.598;2023-02-03T08:52:10;9.50;99.90
18930;DHT22;43305;52.186;5.598;2023-02-03T08:54:37;9.60;99.90
18930;DHT22;43305;52.186;5.598;2023-02-03T08:57:05;9.60;99.90
18930;DHT22;43305;52.186;5.598;2023-02-03T08:59:35;9.60;99.90
18930;DHT22;43305;52.186;5.598;2023-02-03T09:02:03;9.60;99.90
18930;DHT22;43305;52.186;5.598;2023-02-03T09:04:30;9.60;99.90
18930;DHT22;43305;52.186;5.598;2023-02-03T09:07:00;9.60;99.90
18930;DHT22;43305;52.186;5.598;2023-02-03T09:09:30;9.60;99.90
18930;DHT22;43305;52.186;5.598;2023-02-03T09:11:57;9.60;99.90
18930;DHT22;43305;52.186;5.598;2023-02-03T09:14:27;9.70;99.90
18930;DHT22;43305;52.186;5.598;2023-02-03T09:16:54;9.70;99.90
18930;DHT22;43305;52.186;5.598;2023-02-03T09:19:21;9.70;99.90
18930;DHT22;43305;52.186;5.598;2023-02-03T09:21:47;9.70;99.90
18930;DHT22;43305;52.186;5.598;2023-02-03T09:24:15;9.70;99.90
18930;DHT22;43305;52.186;5.598;2023-02-03T09:26:46;9.80;99.90
18930;DHT22;43305;52.186;5.598;2023-02-03T09:29:13;9.80;99.90
18930;DHT22;43305;52.186;5.598;2023-02-03T09:31:40;9.80;99.90
18930;DHT22;43305;52.186;5.598;2023-02-03T09:34:07;9.80;99.90
18930;DHT22;43305;52.186;5.598;2023-02-03T09:36:34;9.80;99.90
18930;DHT22;43305;52.186;5.598;2023-02-03T09:39:02;9.80;99.90
18930;DHT22;43305;52.186;5.598;2023-02-03T09:41:44;9.80;99.90
18930;DHT22;43305;52.186;5.598;2023-02-03T09:44:16;9.80;99.90
18930;DHT22;43305;52.186;5.598;2023-02-03T09:46:49;9.80;99.90
18930;DHT22;43305;52.186;5.598;2023-02-03T09:49:23;9.80;99.90
18930;DHT22;43305;52.186;5.598;2023-02-03T09:51:53;9.80;99.90
18930;DHT22;43305;52.186;5.598;2023-02-03T09:54:26;9.80;99.90
18930;DHT22;43305;52.186;5.598;2023-02-03T09:56:57;9.80;99.90
18930;DHT22;43305;52.186;5.598;2023-02-03T09:59:28;9.90;99.90
18930;DHT22;43305;52.186;5.598;2023-02-03T10:02:01;9.80;99.90
18930;DHT22;43305;52.186;5.598;2023-02-03T10:04:37;9.80;99.90
18930;DHT22;43305;52.186;5.598;2023-02-03T10:07:11;9.90;99.90
18930;DHT22;43305;52.186;5.598;2023-02-03T10:09:52;9.90;99.90
18930;DHT22;43305;52.186;5.598;2023-02-03T10:12:46;9.90;99.90
18930;DHT22;43305;52.186;5.598;2023-02-03T10:15:40;9.90;99.90
18930;DHT22;43305;52.186;5.598;2023-02-03T10:18:12;10.00;99.90
18930;DHT22;43305;52.186;5.598;2023-02-03T10:20:43;10.00;99.90
18930;DHT22;43305;52.186;5.598;2023-02-03T10:23:18;10.00;99.90
18930;DHT22;43305;52.186;5.598;2023-02-03T10:25:50;10.00;99.90
18930;DHT22;43305;52.186;5.598;2023-02-03T10:28:21;10.00;99.90
18930;DHT22;43305;52.186;5.598;2023-02-03T10:30:53;10.10;99.90
18930;DHT22;43305;52.186;5.598;2023-02-03T10:33:23;10.10;99.90
18930;DHT22;43305;52.186;5.598;2023-02-03T10:35:52;10.10;99.90
18930;DHT22;43305;52.186;5.598;2023-02-03T10:38:34;10.10;99.90
18930;DHT22;43305;52.186;5.598;2023-02-03T10:41:05;10.10;99.90
18930;DHT22;43305;52.186;5.598;2023-02-03T10:43:33;10.10;99.90
18930;DHT22;43305;52.186;5.598;2023-02-03T10:46:19;10.10;99.90
18930;DHT22;43305;52.186;5.598;2023-02-03T10:48:46;10.10;99.90
18930;DHT22;43305;52.186;5.598;2023-02-03T10:51:19;10.10;99.90
18930;DHT22;43305;52.186;5.598;2023-02-03T10:53:47;10.10;99.90
18930;DHT22;43305;52.186;5.598;2023-02-03T10:56:19;10.10;99.90
18930;DHT22;43305;52.186;5.598;2023-02-03T10:58:49;10.10;99.90
18930;DHT22;43305;52.186;5.598;2023-02-03T11:01:20;10.10;99.90
18930;DHT22;43305;52.186;5.598;2023-02-03T11:03:56;10.10;99.90
18930;DHT22;43305;52.186;5.598;2023-02-03T11:06:23;10.10;99.90
18930;DHT22;43305;52.186;5.598;2023-02-03T11:08:51;10.10;99.90
18930;DHT22;43305;52.186;5.598;2023-02-03T11:11:23;10.10;99.90
18930;DHT22;43305;52.186;5.598;2023-02-03T11:13:55;10.10;99.90
18930;DHT22;43305;52.186;5.598;2023-02-03T11:16:37;10.10;99.90
18930;DHT22;43305;52.186;5.598;2023-02-03T11:19:05;10.10;99.90
18930;DHT22;43305;52.186;5.598;2023-02-03T11:21:41;10.10;99.90
18930;DHT22;43305;52.186;5.598;2023-02-03T11:24:17;10.10;99.90
18930;DHT22;43305;52.186;5.598;2023-02-03T11:26:48;10.10;99.90
18930;DHT22;43305;52.186;5.598;2023-02-03T11:29:17;10.10;99.90
18930;DHT22;43305;52.186;5.598;2023-02-03T11:31:48;10.10;99.90
18930;DHT22;43305;52.186;5.598;2023-02-03T11:34:19;10.20;99.90
18930;DHT22;43305;52.186;5.598;2023-02-03T11:36:48;10.20;99.90
18930;DHT22;43305;52.186;5.598;2023-02-03T11:39:23;10.20;99.90
18930;DHT22;43305;52.186;5.598;2023-02-03T11:41:52;10.20;99.90
18930;DHT22;43305;52.186;5.598;2023-02-03T11:44:21;10.20;99.90
18930;DHT22;43305;52.186;5.598;2023-02-03T11:46:53;10.20;99.90
18930;DHT22;43305;52.186;5.598;2023-02-03T11:52:40;10.20;99.90
18930;DHT22;43305;52.186;5.598;2023-02-03T11:55:24;10.30;99.90
18930;DHT22;43305;52.186;5.598;2023-02-03T11:58:07;10.30;99.90
18930;DHT22;43305;52.186;5.598;2023-02-03T12:00:41;10.30;99.90
18930;DHT22;43305;52.186;5.598;2023-02-03T12:03:38;10.30;99.90
18930;DHT22;43305;52.186;5.598;2023-02-03T12:06:27;10.20;99.90
18930;DHT22;43305;52.186;5.598;2023-02-03T12:09:09;10.20;99.90
18930;DHT22;43305;52.186;5.598;2023-02-03T12:11:47;10.10;99.90
18930;DHT22;43305;52.186;5.598;2023-02-03T12:14:33;9.90;99.90
18930;DHT22;43305;52.186;5.598;2023-02-03T12:17:16;9.90;99.90
18930;DHT22;43305;52.186;5.598;2023-02-03T12:20:02;9.80;99.90
18930;DHT22;43305;52.186;5.598;2023-02-03T12:22:38;9.70;99.90
18930;DHT22;43305;52.186;5.598;2023-02-03T12:25:26;9.70;99.90
18930;DHT22;43305;52.186;5.598;2023-02-03T12:28:01;9.60;99.90
18930;DHT22;43305;52.186;5.598;2023-02-03T12:30:34;9.50;99.90
18930;DHT22;43305;52.186;5.598;2023-02-03T12:33:11;9.40;99.90
18930;DHT22;43305;52.186;5.598;2023-02-03T12:35:47;9.40;99.90
18930;DHT22;43305;52.186;5.598;2023-02-03T12:38:20;9.30;99.90
18930;DHT22;43305;52.186;5.598;2023-02-03T12:40:53;9.30;99.90
18930;DHT22;43305;52.186;5.598;2023-02-03T12:43:24;9.40;99.90
18930;DHT22;43305;52.186;5.598;2023-02-03T12:45:57;9.40;99.90
18930;DHT22;43305;52.186;5.598;2023-02-03T12:48:30;9.50;99.90
18930;DHT22;43305;52.186;5.598;2023-02-03T12:51:03;9.50;99.90
18930;DHT22;43305;52.186;5.598;2023-02-03T12:53:35;9.50;99.90
18930;DHT22;43305;52.186;5.598;2023-02-03T12:56:07;9.50;99.90
18930;DHT22;43305;52.186;5.598;2023-02-03T12:58:38;9.50;99.90
18930;DHT22;43305;52.186;5.598;2023-02-03T13:01:08;9.60;99.90
18930;DHT22;43305;52.186;5.598;2023-02-03T13:03:41;9.60;99.90
18930;DHT22;43305;52.186;5.598;2023-02-03T13:06:15;9.60;99.90
18930;DHT22;43305;52.186;5.598;2023-02-03T13:08:51;9.60;99.90
18930;DHT22;43305;52.186;5.598;2023-02-03T13:11:23;9.70;99.90
18930;DHT22;43305;52.186;5.598;2023-02-03T13:13:54;9.60;99.90
18930;DHT22;43305;52.186;5.598;2023-02-03T13:16:25;9.60;99.90
18930;DHT22;43305;52.186;5.598;2023-02-03T13:18:57;9.60;99.90
18930;DHT22;43305;52.186;5.598;2023-02-03T13:21:27;9.60;99.90
18930;DHT22;43305;52.186;5.598;2023-02-03T13:23:55;9.60;99.90
18930;DHT22;43305;52.186;5.598;2023-02-03T13:26:49;9.60;99.90
18930;DHT22;43305;52.186;5.598;2023-02-03T13:29:38;9.60;99.90
18930;DHT22;43305;52.186;5.598;2023-02-03T13:32:17;9.50;99.90
18930;DHT22;43305;52.186;5.598;2023-02-03T13:35:06;9.50;99.90
18930;DHT22;43305;52.186;5.598;2023-02-03T13:38:05;9.50;99.90
18930;DHT22;43305;52.186;5.598;2023-02-03T13:40:43;9.60;99.90
18930;DHT22;43305;52.186;5.598;2023-02-03T13:43:18;9.50;99.90
18930;DHT22;43305;52.186;5.598;2023-02-03T13:45:49;9.50;99.90
18930;DHT22;43305;52.186;5.598;2023-02-03T13:48:19;9.50;99.90
18930;DHT22;43305;52.186;5.598;2023-02-03T13:50:47;9.50;99.90
18930;DHT22;43305;52.186;5.598;2023-02-03T13:53:20;9.50;99.90
18930;DHT22;43305;52.186;5.598;2023-02-03T13:55:53;9.50;99.90
18930;DHT22;43305;52.186;5.598;2023-02-03T13:58:23;9.50;99.90
18930;DHT22;43305;52.186;5.598;2023-02-03T14:01:03;9.40;99.90
18930;DHT22;43305;52.186;5.598;2023-02-03T14:03:44;9.50;99.90
18930;DHT22;43305;52.186;5.598;2023-02-03T14:09:36;9.40;99.90
18930;DHT22;43305;52.186;5.598;2023-02-03T14:12:31;9.40;99.90
18930;DHT22;43305;52.186;5.598;2023-02-03T14:15:01;9.40;99.90
18930;DHT22;43305;52.186;5.598;2023-02-03T14:20:53;9.40;99.90
18930;DHT22;43305;52.186;5.598;2023-02-03T14:23:26;9.40;99.90
18930;DHT22;43305;52.186;5.598;2023-02-03T14:25:57;9.40;99.90
18930;DHT22;43305;52.186;5.598;2023-02-03T14:28:28;9.40;99.90
18930;DHT22;43305;52.186;5.598;2023-02-03T14:31:10;9.40;99.90
18930;DHT22;43305;52.186;5.598;2023-02-03T14:33:57;9.30;99.90
18930;DHT22;43305;52.186;5.598;2023-02-03T14:36:46;9.40;99.90
18930;DHT22;43305;52.186;5.598;2023-02-03T14:39:39;9.30;99.90
18930;DHT22;43305;52.186;5.598;2023-02-03T14:42:16;9.30;99.90
18930;DHT22;43305;52.186;5.598;2023-02-03T14:44:52;9.30;99.90
18930;DHT22;43305;52.186;5.598;2023-02-03T14:47:27;9.30;99.90
18930;DHT22;43305;52.186;5.598;2023-02-03T14:50:18;9.20;99.90
18930;DHT22;43305;52.186;5.598;2023-02-03T14:53:08;9.20;99.90
18930;DHT22;43305;52.186;5.598;2023-02-03T14:55:45;9.20;99.90
18930;DHT22;43305;52.186;5.598;2023-02-03T14:58:22;9.10;99.90
18930;DHT22;43305;52.186;5.598;2023-02-03T15:00:50;9.10;99.90
18930;DHT22;43305;52.186;5.598;2023-02-03T15:03:24;9.00;99.90
18930;DHT22;43305;52.186;5.598;2023-02-03T15:05:54;9.00;99.90
18930;DHT22;43305;52.186;5.598;2023-02-03T15:08:43;9.00;99.90
18930;DHT22;43305;52.186;5.598;2023-02-03T15:11:15;9.00;99.90
18930;DHT22;43305;52.186;5.598;2023-02-03T15:13:48;8.90;99.90
18930;DHT22;43305;52.186;5.598;2023-02-03T15:16:17;9.00;99.90
18930;DHT22;43305;52.186;5.598;2023-02-03T15:18:45;8.90;99.90
18930;DHT22;43305;52.186;5.598;2023-02-03T15:21:15;8.90;99.90
18930;DHT22;43305;52.186;5.598;2023-02-03T15:23:43;8.90;99.90
18930;DHT22;43305;52.186;5.598;2023-02-03T15:26:14;8.90;99.90
18930;DHT22;43305;52.186;5.598;2023-02-03T15:28:42;8.90;99.90
18930;DHT22;43305;52.186;5.598;2023-02-03T15:31:16;8.80;99.90
18930;DHT22;43305;52.186;5.598;2023-02-03T15:33:46;8.80;99.90
18930;DHT22;43305;52.186;5.598;2023-02-03T15:36:17;8.80;99.90
18930;DHT22;43305;52.186;5.598;2023-02-03T15:38:48;8.80;99.90
18930;DHT22;43305;52.186;5.598;2023-02-03T15:41:21;8.80;99.90
18930;DHT22;43305;52.186;5.598;2023-02-03T15:43:50;8.80;99.90
18930;DHT22;43305;52.186;5.598;2023-02-03T15:46:24;8.80;99.90
18930;DHT22;43305;52.186;5.598;2023-02-03T15:48:57;8.80;99.90
18930;DHT22;43305;52.186;5.598;2023-02-03T15:51:30;8.80;99.90
18930;DHT22;43305;52.186;5.598;2023-02-03T15:54:01;8.80;99.90
18930;DHT22;43305;52.186;5.598;2023-02-03T15:56:33;8.80;99.90
18930;DHT22;43305;52.186;5.598;2023-02-03T15:59:02;8.80;99.90
18930;DHT22;43305;52.186;5.598;2023-02-03T16:01:34;8.70;99.90
18930;DHT22;43305;52.186;5.598;2023-02-03T16:04:01;8.70;99.90
18930;DHT22;43305;52.186;5.598;2023-02-03T16:06:36;8.70;99.90
18930;DHT22;43305;52.186;5.598;2023-02-03T16:09:26;8.70;99.90
18930;DHT22;43305;52.186;5.598;2023-02-03T16:12:13;8.70;99.90
18930;DHT22;43305;52.186;5.598;2023-02-03T16:14:41;8.70;99.90
18930;DHT22;43305;52.186;5.598;2023-02-03T16:17:29;8.60;99.90
18930;DHT22;43305;52.186;5.598;2023-02-03T16:20:22;8.60;99.90
18930;DHT22;43305;52.186;5.598;2023-02-03T16:23:02;8.60;99.90
18930;DHT22;43305;52.186;5.598;2023-02-03T16:25:31;8.60;99.90
18930;DHT22;43305;52.186;5.598;2023-02-03T16:28:00;8.60;99.90
18930;DHT22;43305;52.186;5.598;2023-02-03T16:30:53;8.60;99.90
18930;DHT22;43305;52.186;5.598;2023-02-03T16:33:43;8.50;99.90